createdAt,value
2023-02-27T00:00:30.637Z,-1.70
2023-02-27T00:02:58.262Z,-1.70
2023-02-27T00:05:25.205Z,-1.60
2023-02-27T00:07:52.042Z,-1.60
2023-02-27T00:10:18.836Z,-1.50
2023-02-27T00:12:45.612Z,-1.50
2023-02-27T00:15:21.645Z,-1.40
2023-02-27T00:17:48.515Z,-1.40
2023-02-27T00:20:16.273Z,-1.40
2023-02-27T00:22:43.318Z,-1.30
2023-02-27T00:25:10.741Z,-1.30
2023-02-27T00:27:37.708Z,-1.30
2023-02-27T00:30:09.498Z,-1.30
2023-02-27T00:32:36.940Z,-1.30
2023-02-27T00:35:08.057Z,-1.30
2023-02-27T00:37:35.205Z,-1.30
2023-02-27T00:40:04.731Z,-1.30
2023-02-27T00:42:32.111Z,-1.30
2023-02-27T00:44:59.933Z,-1.30
2023-02-27T00:47:26.712Z,-1.30
2023-02-27T00:49:53.382Z,-1.20
2023-02-27T00:52:20.151Z,-1.30
2023-02-27T00:54:46.951Z,-1.30
2023-02-27T00:57:13.635Z,-1.30
2023-02-27T00:59:40.309Z,-1.30
2023-02-27T01:02:07.039Z,-1.20
2023-02-27T01:04:33.961Z,-1.20
2023-02-27T01:07:00.628Z,-1.20
2023-02-27T01:09:27.362Z,-1.20
2023-02-27T01:11:54.086Z,-1.20
2023-02-27T01:14:20.864Z,-1.20
2023-02-27T01:16:47.566Z,-1.20
2023-02-27T01:19:16.642Z,-1.30
2023-02-27T01:21:43.785Z,-1.30
2023-02-27T01:24:10.422Z,-1.20
2023-02-27T01:26:37.476Z,-1.20
2023-02-27T01:29:06.337Z,-1.30
2023-02-27T01:31:33.488Z,-1.20
2023-02-27T01:34:00.478Z,-1.20
2023-02-27T01:36:27.143Z,-1.20
2023-02-27T01:38:53.744Z,-1.20
2023-02-27T01:41:21.114Z,-1.20
2023-02-27T01:43:56.926Z,-1.20
2023-02-27T01:46:24.069Z,-1.20
2023-02-27T01:48:54.404Z,-1.20
2023-02-27T01:51:21.583Z,-1.20
2023-02-27T01:53:49.194Z,-1.20
2023-02-27T01:56:21.053Z,-1.20
2023-02-27T01:58:48.806Z,-1.20
2023-02-27T02:01:15.971Z,-1.20
2023-02-27T02:04:09.157Z,-1.20
2023-02-27T02:06:37.411Z,-1.20
2023-02-27T02:09:04.422Z,-1.10
2023-02-27T02:11:31.301Z,-1.10
2023-02-27T02:13:59.078Z,-1.00
2023-02-27T02:16:25.786Z,-1.00
2023-02-27T02:19:12.702Z,-1.00
2023-02-27T02:21:54.723Z,-1.00
2023-02-27T02:24:21.382Z,-1.00
2023-02-27T02:26:58.999Z,-0.90
2023-02-27T02:29:48.197Z,-0.90
2023-02-27T02:32:26.345Z,-0.90
2023-02-27T02:34:57.116Z,-0.90
2023-02-27T02:37:31.056Z,-0.90
2023-02-27T02:40:04.713Z,-0.90
2023-02-27T02:42:46.530Z,-0.90
2023-02-27T02:45:13.296Z,-0.80
2023-02-27T02:47:48.612Z,-0.80
2023-02-27T02:50:18.278Z,-0.80
2023-02-27T02:52:51.812Z,-0.80
2023-02-27T02:55:23.663Z,-0.80
2023-02-27T02:57:58.984Z,-0.80
2023-02-27T03:00:29.008Z,-0.80
2023-02-27T03:02:58.853Z,-0.80
2023-02-27T03:05:32.966Z,-0.80
2023-02-27T03:08:04.567Z,-0.80
2023-02-27T03:10:35.096Z,-0.80
2023-02-27T03:13:13.785Z,-0.80
2023-02-27T03:15:43.688Z,-0.80
2023-02-27T03:18:17.779Z,-0.70
2023-02-27T03:20:47.348Z,-0.70
2023-02-27T03:23:17.305Z,-0.80
2023-02-27T03:25:46.297Z,-0.70
2023-02-27T03:28:15.316Z,-0.70
2023-02-27T03:30:53.452Z,-0.70
2023-02-27T03:33:26.584Z,-0.70
2023-02-27T03:36:05.374Z,-0.70
2023-02-27T03:38:36.045Z,-0.70
2023-02-27T03:41:08.828Z,-0.80
2023-02-27T03:43:41.719Z,-0.70
2023-02-27T03:46:19.610Z,-0.70
2023-02-27T03:48:46.651Z,-0.70
2023-02-27T03:51:14.107Z,-0.70
2023-02-27T03:53:48.361Z,-0.70
2023-02-27T03:56:16.574Z,-0.70
2023-02-27T03:58:43.683Z,-0.70
2023-02-27T04:01:10.353Z,-0.70
2023-02-27T04:03:41.027Z,-0.70
2023-02-27T04:06:26.495Z,-0.70
2023-02-27T04:09:06.930Z,-0.70
2023-02-27T04:11:35.179Z,-0.70
2023-02-27T04:14:01.794Z,-0.70
2023-02-27T04:16:47.365Z,-0.70
2023-02-27T04:19:35.840Z,-0.70
2023-02-27T04:22:02.538Z,-0.70
2023-02-27T04:24:48.088Z,-0.70
2023-02-27T04:27:17.757Z,-0.70
2023-02-27T04:30:02.919Z,-0.70
2023-02-27T04:32:38.661Z,-0.60
2023-02-27T04:35:15.169Z,-0.70
2023-02-27T04:37:50.291Z,-0.70
2023-02-27T04:40:20.768Z,-0.60
2023-02-27T04:42:50.647Z,-0.70
2023-02-27T04:45:20.001Z,-0.60
2023-02-27T04:47:49.473Z,-0.60
2023-02-27T04:50:22.460Z,-0.60
2023-02-27T04:53:11.837Z,-0.60
2023-02-27T04:55:44.016Z,-0.60
2023-02-27T04:58:19.974Z,-0.60
2023-02-27T05:00:49.972Z,-0.60
2023-02-27T05:03:19.050Z,-0.60
2023-02-27T05:05:46.767Z,-0.60
2023-02-27T05:08:42.869Z,-0.60
2023-02-27T05:11:15.025Z,-0.60
2023-02-27T05:13:45.819Z,-0.60
2023-02-27T05:16:20.701Z,-0.60
2023-02-27T05:18:47.656Z,-0.60
2023-02-27T05:21:17.332Z,-0.60
2023-02-27T05:23:49.324Z,-0.60
2023-02-27T05:26:15.921Z,-0.60
2023-02-27T05:28:48.708Z,-0.50
2023-02-27T05:31:22.200Z,-0.60
2023-02-27T05:33:55.910Z,-0.60
2023-02-27T05:36:35.049Z,-0.60
2023-02-27T05:39:06.655Z,-0.60
2023-02-27T05:41:43.134Z,-0.50
2023-02-27T05:44:12.910Z,-0.60
2023-02-27T05:46:43.779Z,-0.60
2023-02-27T05:49:14.531Z,-0.50
2023-02-27T05:51:43.443Z,-0.50
2023-02-27T05:54:21.221Z,-0.50
2023-02-27T05:56:49.936Z,-0.50
2023-02-27T05:59:25.634Z,-0.50
2023-02-27T06:01:52.378Z,-0.50
2023-02-27T06:04:19.174Z,-0.50
2023-02-27T06:06:45.837Z,-0.50
2023-02-27T06:09:12.549Z,-0.50
2023-02-27T06:11:40.351Z,-0.40
2023-02-27T06:14:08.145Z,-0.40
2023-02-27T06:16:38.184Z,-0.40
2023-02-27T06:19:05.869Z,-0.40
2023-02-27T06:21:32.588Z,-0.30
2023-02-27T06:23:59.228Z,-0.30
2023-02-27T06:26:26.378Z,-0.30
2023-02-27T06:28:53.215Z,-0.30
2023-02-27T06:31:21.678Z,-0.30
2023-02-27T06:33:48.724Z,-0.30
2023-02-27T06:36:15.531Z,-0.20
2023-02-27T06:38:42.304Z,-0.20
2023-02-27T06:41:09.222Z,-0.20
2023-02-27T06:43:37.142Z,-0.10
2023-02-27T06:46:03.871Z,-0.10
2023-02-27T06:48:30.519Z,-0.10
2023-02-27T06:50:57.466Z,-0.10
2023-02-27T06:53:24.740Z,0.00
2023-02-27T06:55:51.653Z,0.00
2023-02-27T06:58:18.296Z,0.00
2023-02-27T07:00:45.031Z,0.00
2023-02-27T07:03:12.553Z,0.10
2023-02-27T07:05:40.354Z,0.10
2023-02-27T07:08:06.982Z,0.10
2023-02-27T07:10:33.685Z,0.20
2023-02-27T07:13:00.380Z,0.20
2023-02-27T07:15:27.023Z,0.20
2023-02-27T07:17:54.444Z,0.20
2023-02-27T07:20:21.051Z,0.20
2023-02-27T07:22:47.723Z,0.30
2023-02-27T07:25:14.597Z,0.30
2023-02-27T07:27:41.209Z,0.40
2023-02-27T07:30:08.525Z,0.40
2023-02-27T07:32:35.162Z,0.30
2023-02-27T07:35:03.237Z,0.40
2023-02-27T07:37:29.891Z,0.40
2023-02-27T07:39:56.623Z,0.50
2023-02-27T07:42:23.266Z,0.50
2023-02-27T07:44:49.880Z,0.60
2023-02-27T07:47:17.732Z,0.70
2023-02-27T07:49:44.519Z,0.70
2023-02-27T07:52:11.488Z,0.70
2023-02-27T07:54:38.293Z,0.80
2023-02-27T07:57:05.320Z,0.80
2023-02-27T07:59:32.056Z,0.90
2023-02-27T08:01:58.678Z,0.90
2023-02-27T08:04:25.368Z,1.00
2023-02-27T08:06:51.994Z,1.00
2023-02-27T08:09:18.681Z,1.00
2023-02-27T08:11:47.796Z,1.10
2023-02-27T08:14:16.500Z,1.10
2023-02-27T08:16:43.184Z,1.10
2023-02-27T08:19:11.914Z,1.10
2023-02-27T08:21:38.538Z,1.20
2023-02-27T08:24:05.306Z,1.40
2023-02-27T08:26:31.983Z,1.50
2023-02-27T08:28:59.310Z,1.50
2023-02-27T08:31:25.928Z,1.40
2023-02-27T08:34:00.990Z,1.50
2023-02-27T08:36:34.420Z,1.60
2023-02-27T08:39:01.135Z,1.70
2023-02-27T08:41:27.831Z,1.80
2023-02-27T08:43:54.588Z,1.80
2023-02-27T08:46:21.252Z,1.70
2023-02-27T08:48:47.853Z,1.80
2023-02-27T08:51:14.593Z,1.90
2023-02-27T08:53:41.267Z,2.00
2023-02-27T08:56:07.971Z,2.10
2023-02-27T08:58:36.102Z,2.10
2023-02-27T09:01:03.382Z,2.10
2023-02-27T09:03:30.743Z,2.10
2023-02-27T09:05:57.493Z,2.20
2023-02-27T09:08:24.142Z,2.30
2023-02-27T09:10:50.854Z,2.30
2023-02-27T09:13:17.468Z,2.40
2023-02-27T09:15:47.135Z,2.40
2023-02-27T09:18:13.811Z,2.40
2023-02-27T09:20:41.520Z,2.40
2023-02-27T09:23:08.219Z,2.40
2023-02-27T09:25:35.009Z,2.40
2023-02-27T09:28:01.689Z,2.40
2023-02-27T09:30:28.551Z,2.30
2023-02-27T09:32:55.219Z,2.20
2023-02-27T09:35:25.459Z,2.30
2023-02-27T09:37:52.288Z,2.40
2023-02-27T09:40:19.825Z,2.50
2023-02-27T09:42:48.655Z,2.70
2023-02-27T09:45:43.781Z,2.70
2023-02-27T09:48:20.423Z,2.50
2023-02-27T09:50:52.634Z,2.60
2023-02-27T09:53:27.107Z,2.80
2023-02-27T09:56:00.062Z,2.80
2023-02-27T09:58:36.830Z,2.90
2023-02-27T10:01:06.663Z,2.70
2023-02-27T10:03:36.077Z,2.80
2023-02-27T10:06:06.221Z,2.80
2023-02-27T10:08:57.077Z,2.90
2023-02-27T10:11:47.013Z,2.90
2023-02-27T10:14:25.617Z,2.80
2023-02-27T10:16:55.464Z,3.10
2023-02-27T10:19:30.314Z,3.10
2023-02-27T10:21:58.178Z,3.00
2023-02-27T10:24:31.247Z,3.10
2023-02-27T10:27:25.907Z,3.20
2023-02-27T10:30:05.774Z,3.20
2023-02-27T10:32:38.452Z,3.20
2023-02-27T10:35:23.919Z,3.30
2023-02-27T10:37:52.822Z,3.40
2023-02-27T10:40:20.767Z,3.30
2023-02-27T10:42:47.914Z,3.30
2023-02-27T10:45:15.870Z,3.30
2023-02-27T10:47:44.417Z,3.40
2023-02-27T10:50:21.508Z,3.50
2023-02-27T10:52:51.951Z,3.50
2023-02-27T10:55:20.219Z,3.50
2023-02-27T10:57:47.042Z,3.20
2023-02-27T11:00:33.545Z,3.50
2023-02-27T11:03:02.137Z,3.50
2023-02-27T11:05:30.884Z,3.60
2023-02-27T11:12:13.001Z,3.80
2023-02-27T11:22:07.715Z,3.70
2023-02-27T11:24:34.891Z,3.50
2023-02-27T11:27:06.392Z,3.60
2023-02-27T11:29:38.569Z,3.60
2023-02-27T11:33:00.685Z,3.80
2023-02-27T11:35:30.156Z,3.90
2023-02-27T11:38:02.029Z,4.20
2023-02-27T11:40:33.598Z,4.10
2023-02-27T11:43:15.156Z,4.10
2023-02-27T11:46:14.486Z,4.20
2023-02-27T11:48:39.849Z,4.50
2023-02-27T11:51:15.902Z,4.50
2023-02-27T11:53:48.664Z,4.50
2023-02-27T11:56:18.561Z,4.60
2023-02-27T11:58:59.088Z,4.40
2023-02-27T12:01:28.372Z,4.30
2023-02-27T12:03:55.219Z,4.50
2023-02-27T12:06:27.664Z,4.50
2023-02-27T12:08:57.553Z,4.40
2023-02-27T12:11:32.127Z,4.30
2023-02-27T12:14:21.190Z,4.40
2023-02-27T12:17:08.649Z,4.60
2023-02-27T12:19:41.819Z,4.50
2023-02-27T12:22:20.737Z,4.60
2023-02-27T12:24:49.728Z,4.40
2023-02-27T12:27:22.405Z,4.50
2023-02-27T12:29:59.145Z,4.30
2023-02-27T12:32:36.685Z,4.50
2023-02-27T12:35:12.964Z,4.60
2023-02-27T12:37:39.677Z,4.80
2023-02-27T12:40:10.384Z,4.80
2023-02-27T12:42:55.732Z,4.70
2023-02-27T12:45:26.778Z,4.60
2023-02-27T12:48:19.997Z,4.40
2023-02-27T12:50:53.973Z,4.40
2023-02-27T12:53:29.744Z,4.50
2023-02-27T12:56:25.843Z,4.70
2023-02-27T12:58:56.086Z,4.80
2023-02-27T13:01:35.030Z,4.60
2023-02-27T13:04:20.151Z,4.50
2023-02-27T13:06:49.845Z,4.60
2023-02-27T13:09:22.165Z,4.60
2023-02-27T13:11:56.019Z,4.50
2023-02-27T13:14:28.592Z,4.30
2023-02-27T13:16:57.661Z,4.20
2023-02-27T13:19:26.772Z,4.10
2023-02-27T13:22:02.503Z,4.10
2023-02-27T13:24:29.932Z,4.20
2023-02-27T13:26:57.599Z,4.10
2023-02-27T13:29:34.923Z,4.20
2023-02-27T13:32:06.714Z,4.10
2023-02-27T13:34:36.225Z,4.20
2023-02-27T13:37:06.674Z,4.10
2023-02-27T13:39:45.897Z,3.80
2023-02-27T13:42:27.545Z,3.90
2023-02-27T13:44:56.495Z,3.90
2023-02-27T13:47:28.944Z,3.90
2023-02-27T13:49:56.241Z,3.90
2023-02-27T13:52:29.887Z,3.70
2023-02-27T13:54:59.898Z,3.70
2023-02-27T13:57:33.910Z,3.60
2023-02-27T14:00:05.098Z,3.60
2023-02-27T14:02:46.627Z,3.80
2023-02-27T14:05:27.613Z,3.80
2023-02-27T14:08:15.048Z,3.70
2023-02-27T14:10:50.910Z,3.60
2023-02-27T14:13:36.361Z,3.60
2023-02-27T14:16:04.628Z,3.50
2023-02-27T14:18:50.243Z,3.60
2023-02-27T14:21:35.626Z,3.70
2023-02-27T14:24:02.397Z,3.80
2023-02-27T14:26:29.134Z,3.90
2023-02-27T14:28:57.150Z,3.80
2023-02-27T14:31:25.911Z,3.80
2023-02-27T14:33:55.257Z,3.70
2023-02-27T14:36:23.271Z,3.50
2023-02-27T14:38:50.647Z,3.30
2023-02-27T14:41:36.091Z,3.20
2023-02-27T14:44:03.006Z,3.00
2023-02-27T14:46:31.635Z,2.80
2023-02-27T14:49:00.314Z,2.70
2023-02-27T14:51:30.317Z,2.70
2023-02-27T14:54:01.203Z,2.70
2023-02-27T14:56:28.164Z,2.70
2023-02-27T14:59:04.351Z,2.60
2023-02-27T15:01:35.377Z,2.60
2023-02-27T15:04:02.475Z,2.50
2023-02-27T15:06:37.031Z,2.40
2023-02-27T15:09:03.843Z,2.30
2023-02-27T15:11:30.847Z,2.20
2023-02-27T15:13:59.060Z,2.20
2023-02-27T15:16:34.221Z,2.20
2023-02-27T15:19:20.476Z,2.20
2023-02-27T15:21:52.391Z,2.20
2023-02-27T15:24:26.362Z,2.10
2023-02-27T15:26:58.275Z,2.10
2023-02-27T15:29:26.267Z,2.10
2023-02-27T15:31:53.096Z,2.10
2023-02-27T15:34:20.035Z,2.10
2023-02-27T15:36:48.627Z,2.00
2023-02-27T15:39:17.288Z,1.90
2023-02-27T15:41:48.620Z,1.90
2023-02-27T15:44:21.322Z,1.80
2023-02-27T15:46:48.267Z,1.80
2023-02-27T15:49:18.906Z,1.70
2023-02-27T15:51:54.131Z,1.70
2023-02-27T15:54:21.588Z,1.70
2023-02-27T15:56:48.419Z,1.70
2023-02-27T15:59:16.542Z,1.70
2023-02-27T16:01:44.441Z,1.60
2023-02-27T16:04:20.584Z,1.60
2023-02-27T16:06:48.847Z,1.60
2023-02-27T16:09:20.938Z,1.60
2023-02-27T16:11:47.645Z,1.50
2023-02-27T16:14:43.767Z,1.50
2023-02-27T16:17:32.721Z,1.50
2023-02-27T16:20:02.054Z,1.40
2023-02-27T16:22:30.453Z,1.30
2023-02-27T16:25:08.110Z,1.30
2023-02-27T16:27:35.132Z,1.20
2023-02-27T16:30:02.881Z,1.20
2023-02-27T16:32:49.950Z,1.10
2023-02-27T16:35:21.769Z,1.10
2023-02-27T16:37:49.336Z,1.00
2023-02-27T16:40:20.973Z,1.00
2023-02-27T16:42:48.141Z,1.00
2023-02-27T16:45:16.542Z,1.00
2023-02-27T16:47:43.408Z,0.90
2023-02-27T16:50:30.328Z,0.90
2023-02-27T16:52:57.518Z,0.80
2023-02-27T16:55:24.457Z,0.80
2023-02-27T16:57:51.294Z,0.70
2023-02-27T17:00:18.520Z,0.70
2023-02-27T17:02:46.699Z,0.70
2023-02-27T17:05:15.175Z,0.70
2023-02-27T17:07:42.397Z,0.60
2023-02-27T17:10:11.178Z,0.60
2023-02-27T17:12:39.120Z,0.60
2023-02-27T17:15:09.210Z,0.60
2023-02-27T17:17:35.911Z,0.60
2023-02-27T17:20:06.574Z,0.50
2023-02-27T17:22:40.706Z,0.50
2023-02-27T17:25:07.883Z,0.50
2023-02-27T17:27:34.656Z,0.50
2023-02-27T17:30:01.341Z,0.40
2023-02-27T17:32:27.967Z,0.50
2023-02-27T17:34:55.211Z,0.40
2023-02-27T17:37:22.214Z,0.40
2023-02-27T17:39:48.966Z,0.40
2023-02-27T17:42:18.480Z,0.40
2023-02-27T17:44:48.350Z,0.30
2023-02-27T17:47:15.307Z,0.40
2023-02-27T17:49:41.963Z,0.30
2023-02-27T17:52:09.254Z,0.30
2023-02-27T17:54:36.256Z,0.30
2023-02-27T17:57:04.865Z,0.20
2023-02-27T17:59:31.682Z,0.20
2023-02-27T18:01:58.999Z,0.20
2023-02-27T18:04:25.611Z,0.20
2023-02-27T18:06:52.421Z,0.20
2023-02-27T18:09:19.182Z,0.20
2023-02-27T18:11:45.797Z,0.20
2023-02-27T18:14:12.556Z,0.20
2023-02-27T18:16:39.156Z,0.30
2023-02-27T18:19:08.861Z,0.20
2023-02-27T18:21:37.841Z,0.20
2023-02-27T18:24:04.910Z,0.20
2023-02-27T18:26:32.273Z,0.20
2023-02-27T18:29:00.393Z,0.20
2023-02-27T18:31:31.435Z,0.20
2023-02-27T18:33:58.414Z,0.20
2023-02-27T18:36:25.139Z,0.20
2023-02-27T18:38:51.784Z,0.30
2023-02-27T18:41:18.448Z,0.20
2023-02-27T18:43:45.204Z,0.20
2023-02-27T18:46:12.790Z,0.30
2023-02-27T18:48:40.355Z,0.30
2023-02-27T18:51:12.307Z,0.20
2023-02-27T18:53:41.142Z,0.20
2023-02-27T18:56:08.658Z,0.20
2023-02-27T18:58:35.454Z,0.20
2023-02-27T19:01:04.091Z,0.20
2023-02-27T19:03:31.479Z,0.20
2023-02-27T19:05:58.459Z,0.20
2023-02-27T19:08:29.102Z,0.20
2023-02-27T19:10:59.396Z,0.20
2023-02-27T19:13:26.569Z,0.20
2023-02-27T19:15:54.870Z,0.30
2023-02-27T19:18:21.498Z,0.20
2023-02-27T19:20:48.219Z,0.20
2023-02-27T19:23:14.889Z,0.20
2023-02-27T19:25:42.035Z,0.20
2023-02-27T19:28:10.937Z,0.20
2023-02-27T19:30:38.718Z,0.20
2023-02-27T19:33:05.475Z,0.20
2023-02-27T19:35:32.304Z,0.20
2023-02-27T19:37:59.357Z,0.20
2023-02-27T19:40:26.331Z,0.20
2023-02-27T19:42:53.046Z,0.10
2023-02-27T19:45:19.774Z,0.10
2023-02-27T19:47:46.832Z,0.10
2023-02-27T19:50:13.758Z,0.10
2023-02-27T19:52:40.415Z,0.20
2023-02-27T19:55:07.256Z,0.10
2023-02-27T19:57:34.727Z,0.10
2023-02-27T20:00:01.367Z,0.10
2023-02-27T20:02:28.123Z,0.20
2023-02-27T20:04:54.908Z,0.10
2023-02-27T20:07:21.927Z,0.10
2023-02-27T20:09:48.518Z,0.10
2023-02-27T20:12:15.277Z,0.10
2023-02-27T20:14:41.996Z,0.10
2023-02-27T20:17:08.765Z,0.10
2023-02-27T20:19:36.484Z,0.10
2023-02-27T20:22:03.636Z,0.10
2023-02-27T20:24:30.322Z,0.10
2023-02-27T20:26:59.159Z,0.10
2023-02-27T20:29:26.494Z,0.10
2023-02-27T20:31:53.614Z,0.10
2023-02-27T20:34:22.857Z,0.10
2023-02-27T20:36:52.414Z,0.10
2023-02-27T20:39:19.358Z,0.00
2023-02-27T20:41:46.610Z,0.00
2023-02-27T20:44:13.684Z,0.00
2023-02-27T20:46:41.769Z,0.00
2023-02-27T20:49:10.189Z,0.10
2023-02-27T20:51:38.726Z,0.10
2023-02-27T20:54:06.769Z,0.10
2023-02-27T20:56:34.755Z,0.10
2023-02-27T20:59:02.377Z,0.10
2023-02-27T21:01:29.490Z,0.00
2023-02-27T21:03:57.153Z,0.00
2023-02-27T21:06:24.304Z,0.10
2023-02-27T21:08:53.794Z,0.00
2023-02-27T21:14:21.621Z,0.00
2023-02-27T21:16:51.400Z,0.00
2023-02-27T21:19:18.057Z,0.10
2023-02-27T21:21:44.635Z,0.10
2023-02-27T21:24:11.223Z,0.10
2023-02-27T21:40:47.736Z,0.00
2023-02-27T21:44:05.058Z,0.00
2023-02-27T21:46:54.603Z,0.00
2023-02-27T22:49:06.554Z,-0.50
2023-02-27T23:30:14.328Z,-1.20
2023-02-27T23:32:43.487Z,-1.30
2023-02-27T23:35:11.031Z,-1.30
2023-02-27T23:37:37.831Z,-1.40
2023-02-27T23:40:12.064Z,-1.40
2023-02-27T23:42:57.565Z,-1.40
2023-02-27T23:45:24.347Z,-1.40
2023-02-27T23:47:52.085Z,-1.40
2023-02-27T23:50:22.982Z,-1.50
2023-02-27T23:52:50.226Z,-1.50
2023-02-27T23:55:17.665Z,-1.50
2023-02-27T23:57:44.358Z,-1.60
